Redfield, Arkansas
Current Conditions -  °F | °C
As of 6:53 PM on Friday 21 Nov 2014 (Local Time) from KLIT Reporting Station
Haze Haze  
Wind Chill: 49°   Ceiling: 400
Heat Index: 49°   Visibility: 1.5mi
Dew Point: 46°   Wind: 3mph
Humidity: 90%   Direction: 90°E
Pressure: 30.27"   Gusts: NA
Location:  34.45°N, 92.18°W
Report Text: KLIT 220053Z 09003KT 1 1/2SM BR OVC004 09/08 A3027 RMK AO2 SLP253 P0001 T00940078
Loading
Personal Weather Stations






























Interactive Weather Map New forecast layout! Learn more

10-Day Weather Forecast

Advertisements
Track Severe Weather on mobile